Terminal Aerodrome Forecast
Issued by NWS

Home | Current Version | Previous Version | Text Only | Print | Product List | Glossary On
Versions: 1 2 3 4 5 6 7 8 9 10 11 12 13 14 15 16 17 18 19
524
FTUS42 KGSP 102330
TAFAND
TAF
KAND 102330Z 1100/1124 14003KT P6SM SCT250
     FM111100 07004KT P6SM FEW050 BKN250
     FM112000 06005KT P6SM BKN030=

USA.gov is the U.S. government's official web portal to all federal, state and local government web resources and services.